sensor_id;sensor_type;location;lat;lon;timestamp;pressure;altitude;pressure_sealevel;temperature;humidity
34205;BME280;20471;49.680;20.074;2022-08-19T00:01:50;96777.79;;;19.27;72.17
34205;BME280;20471;49.680;20.074;2022-08-19T00:04:21;96770.95;;;19.24;72.25
34205;BME280;20471;49.680;20.074;2022-08-19T00:06:49;96776.48;;;19.17;72.15
34205;BME280;20471;49.680;20.074;2022-08-19T00:09:20;96778.39;;;19.14;72.29
34205;BME280;20471;49.680;20.074;2022-08-19T00:11:49;96790.44;;;19.13;72.33
34205;BME280;20471;49.680;20.074;2022-08-19T00:14:16;96785.52;;;19.10;72.36
34205;BME280;20471;49.680;20.074;2022-08-19T00:16:45;96792.36;;;19.10;72.39
34205;BME280;20471;49.680;20.074;2022-08-19T00:19:14;96797.83;;;19.10;72.39
34205;BME280;20471;49.680;20.074;2022-08-19T00:21:42;96796.77;;;19.05;72.42
34205;BME280;20471;49.680;20.074;2022-08-19T00:24:11;96796.78;;;19.00;72.47
34205;BME280;20471;49.680;20.074;2022-08-19T00:26:40;96792.95;;;18.96;72.61
34205;BME280;20471;49.680;20.074;2022-08-19T00:29:09;96800.92;;;18.95;72.63
34205;BME280;20471;49.680;20.074;2022-08-19T00:31:37;96795.72;;;18.94;72.62
34205;BME280;20471;49.680;20.074;2022-08-19T00:34:04;96793.54;;;18.91;72.62
34205;BME280;20471;49.680;20.074;2022-08-19T00:36:31;96796.55;;;18.89;72.68
34205;BME280;20471;49.680;20.074;2022-08-19T00:38:59;96796.00;;;18.90;72.73
34205;BME280;20471;49.680;20.074;2022-08-19T00:41:27;96788.34;;;18.89;72.73
34205;BME280;20471;49.680;20.074;2022-08-19T00:44:10;96785.89;;;18.88;72.75
34205;BME280;20471;49.680;20.074;2022-08-19T00:46:40;96793.30;;;18.82;72.64
34205;BME280;20471;49.680;20.074;2022-08-19T00:52:02;96790.88;;;18.70;72.94
34205;BME280;20471;49.680;20.074;2022-08-19T00:54:37;96790.34;;;18.66;72.99
34205;BME280;20471;49.680;20.074;2022-08-19T00:57:07;96793.63;;;18.63;73.15
34205;BME280;20471;49.680;20.074;2022-08-19T00:59:39;96783.78;;;18.57;73.22
34205;BME280;20471;49.680;20.074;2022-08-19T01:02:07;96784.05;;;18.48;73.41
34205;BME280;20471;49.680;20.074;2022-08-19T01:04:34;96783.53;;;18.46;73.61
34205;BME280;20471;49.680;20.074;2022-08-19T01:07:01;96781.89;;;18.47;73.76
34205;BME280;20471;49.680;20.074;2022-08-19T01:09:29;96780.77;;;18.51;73.75
34205;BME280;20471;49.680;20.074;2022-08-19T01:11:56;96784.05;;;18.53;73.69
34205;BME280;20471;49.680;20.074;2022-08-19T01:14:23;96783.53;;;18.46;73.67
34205;BME280;20471;49.680;20.074;2022-08-19T01:16:52;96773.69;;;18.40;73.82
34205;BME280;20471;49.680;20.074;2022-08-19T01:19:33;96773.14;;;18.40;73.97
34205;BME280;20471;49.680;20.074;2022-08-19T01:22:05;96774.23;;;18.42;74.02
34205;BME280;20471;49.680;20.074;2022-08-19T01:24:39;96766.59;;;18.39;73.98
34205;BME280;20471;49.680;20.074;2022-08-19T01:27:07;96761.66;;;18.35;74.05
34205;BME280;20471;49.680;20.074;2022-08-19T01:29:39;96760.06;;;18.34;74.12
34205;BME280;20471;49.680;20.074;2022-08-19T01:32:09;96761.66;;;18.35;74.17
34205;BME280;20471;49.680;20.074;2022-08-19T01:34:37;96754.84;;;18.35;74.19
34205;BME280;20471;49.680;20.074;2022-08-19T01:37:11;96759.21;;;18.36;74.14
34205;BME280;20471;49.680;20.074;2022-08-19T01:39:39;96757.57;;;18.35;74.14
34205;BME280;20471;49.680;20.074;2022-08-19T01:42:08;96760.88;;;18.32;74.11
34205;BME280;20471;49.680;20.074;2022-08-19T01:44:39;96763.34;;;18.31;74.14
34205;BME280;20471;49.680;20.074;2022-08-19T01:47:07;96760.60;;;18.31;74.06
34205;BME280;20471;49.680;20.074;2022-08-19T01:49:36;96771.26;;;18.30;74.02
34205;BME280;20471;49.680;20.074;2022-08-19T01:52:04;96762.78;;;18.29;73.94
34205;BME280;20471;49.680;20.074;2022-08-19T01:54:33;96764.70;;;18.29;73.98
34205;BME280;20471;49.680;20.074;2022-08-19T01:57:08;96756.50;;;18.26;74.02
34205;BME280;20471;49.680;20.074;2022-08-19T01:59:37;96757.87;;;18.26;74.01
34205;BME280;20471;49.680;20.074;2022-08-19T02:02:06;96756.25;;;18.23;74.02
34205;BME280;20471;49.680;20.074;2022-08-19T02:04:34;96758.16;;;18.15;74.08
34205;BME280;20471;49.680;20.074;2022-08-19T02:07:03;96758.16;;;18.12;74.15
34205;BME280;20471;49.680;20.074;2022-08-19T02:09:31;96760.64;;;18.11;74.20
34205;BME280;20471;49.680;20.074;2022-08-19T02:11:58;96758.19;;;18.10;74.16
34205;BME280;20471;49.680;20.074;2022-08-19T02:14:25;96759.00;;;18.08;74.16
34205;BME280;20471;49.680;20.074;2022-08-19T02:16:52;96753.53;;;18.05;74.18
34205;BME280;20471;49.680;20.074;2022-08-19T02:19:18;96761.17;;;18.03;74.19
34205;BME280;20471;49.680;20.074;2022-08-19T02:21:45;96751.63;;;17.95;74.17
34205;BME280;20471;49.680;20.074;2022-08-19T02:24:12;96750.55;;;17.84;74.27
34205;BME280;20471;49.680;20.074;2022-08-19T02:26:39;96746.17;;;17.80;74.45
34205;BME280;20471;49.680;20.074;2022-08-19T02:29:05;96747.25;;;17.77;74.62
34205;BME280;20471;49.680;20.074;2022-08-19T02:31:32;96744.80;;;17.78;74.70
34205;BME280;20471;49.680;20.074;2022-08-19T02:33:58;96736.35;;;17.72;74.68
34205;BME280;20471;49.680;20.074;2022-08-19T02:36:26;96736.87;;;17.61;74.83
34205;BME280;20471;49.680;20.074;2022-08-19T02:38:54;96747.23;;;17.61;75.03
34205;BME280;20471;49.680;20.074;2022-08-19T02:41:25;96743.42;;;17.62;75.17
34205;BME280;20471;49.680;20.074;2022-08-19T02:43:54;96747.79;;;17.63;75.21
34205;BME280;20471;49.680;20.074;2022-08-19T02:46:25;96742.88;;;17.63;75.22
34205;BME280;20471;49.680;20.074;2022-08-19T02:48:55;96739.58;;;17.56;75.16
34205;BME280;20471;49.680;20.074;2022-08-19T02:54:02;96749.69;;;17.60;75.33
34205;BME280;20471;49.680;20.074;2022-08-19T02:56:30;96751.33;;;17.61;75.38
34205;BME280;20471;49.680;20.074;2022-08-19T02:58:57;96754.06;;;17.61;75.31
34205;BME280;20471;49.680;20.074;2022-08-19T03:01:28;96752.15;;;17.62;75.26
34205;BME280;20471;49.680;20.074;2022-08-19T03:03:56;96754.87;;;17.62;75.24
34205;BME280;20471;49.680;20.074;2022-08-19T03:06:25;96759.52;;;17.61;75.24
34205;BME280;20471;49.680;20.074;2022-08-19T03:08:53;96764.70;;;17.60;75.17
34205;BME280;20471;49.680;20.074;2022-08-19T03:11:24;96768.52;;;17.59;75.18
34205;BME280;20471;49.680;20.074;2022-08-19T03:13:51;96775.89;;;17.61;75.24
34205;BME280;20471;49.680;20.074;2022-08-19T03:16:20;96780.53;;;17.61;75.29
34205;BME280;20471;49.680;20.074;2022-08-19T03:18:49;96783.26;;;17.61;75.22
34205;BME280;20471;49.680;20.074;2022-08-19T03:21:18;96781.62;;;17.60;75.24
34205;BME280;20471;49.680;20.074;2022-08-19T03:23:47;96783.50;;;17.54;75.27
34205;BME280;20471;49.680;20.074;2022-08-19T03:26:14;96783.50;;;17.47;75.45
34205;BME280;20471;49.680;20.074;2022-08-19T03:28:41;96776.66;;;17.42;75.59
34205;BME280;20471;49.680;20.074;2022-08-19T03:31:13;96770.41;;;17.39;75.68
34205;BME280;20471;49.680;20.074;2022-08-19T03:33:40;96763.03;;;17.37;75.81
34205;BME280;20471;49.680;20.074;2022-08-19T03:36:13;96759.17;;;17.30;75.84
34205;BME280;20471;49.680;20.074;2022-08-19T03:38:47;96761.08;;;17.22;76.03
34205;BME280;20471;49.680;20.074;2022-08-19T03:41:19;96767.06;;;17.14;76.22
34205;BME280;20471;49.680;20.074;2022-08-19T03:43:47;96770.88;;;17.13;76.39
34205;BME280;20471;49.680;20.074;2022-08-19T03:46:18;96777.98;;;17.14;76.50
34205;BME280;20471;49.680;20.074;2022-08-19T03:48:48;96773.60;;;17.18;76.57
34205;BME280;20471;49.680;20.074;2022-08-19T03:51:21;96779.63;;;17.22;76.53
34205;BME280;20471;49.680;20.074;2022-08-19T03:53:51;96787.27;;;17.28;76.53
34205;BME280;20471;49.680;20.074;2022-08-19T03:56:20;96789.73;;;17.29;76.53
34205;BME280;20471;49.680;20.074;2022-08-19T03:58:47;96787.82;;;17.30;76.54
34205;BME280;20471;49.680;20.074;2022-08-19T04:01:16;96785.92;;;17.33;76.46
34205;BME280;20471;49.680;20.074;2022-08-19T04:03:44;96782.94;;;17.35;76.42
34205;BME280;20471;49.680;20.074;2022-08-19T04:06:18;96780.22;;;17.37;76.36
34205;BME280;20471;49.680;20.074;2022-08-19T04:08:49;96773.67;;;17.38;76.34
34205;BME280;20471;49.680;20.074;2022-08-19T04:11:19;96766.83;;;17.41;76.33
34205;BME280;20471;49.680;20.074;2022-08-19T04:13:52;96777.48;;;17.42;76.34
34205;BME280;20471;49.680;20.074;2022-08-19T04:16:20;96776.92;;;17.40;76.41
34205;BME280;20471;49.680;20.074;2022-08-19T04:18:48;96787.03;;;17.42;76.44
34205;BME280;20471;49.680;20.074;2022-08-19T04:21:20;96794.95;;;17.44;76.49
34205;BME280;20471;49.680;20.074;2022-08-19T04:23:49;96793.85;;;17.42;76.48
34205;BME280;20471;49.680;20.074;2022-08-19T04:26:19;96794.13;;;17.43;76.54
34205;BME280;20471;49.680;20.074;2022-08-19T04:28:48;96785.13;;;17.45;76.49
34205;BME280;20471;49.680;20.074;2022-08-19T04:31:23;96772.05;;;17.47;76.53
34205;BME280;20471;49.680;20.074;2022-08-19T04:33:56;96761.97;;;17.50;76.55
34205;BME280;20471;49.680;20.074;2022-08-19T04:36:26;96761.13;;;17.52;76.64
34205;BME280;20471;49.680;20.074;2022-08-19T04:39:00;96770.95;;;17.53;76.64
34205;BME280;20471;49.680;20.074;2022-08-19T04:41:27;96767.69;;;17.56;76.70
34205;BME280;20471;49.680;20.074;2022-08-19T04:44:12;96772.05;;;17.57;76.80
34205;BME280;20471;49.680;20.074;2022-08-19T04:46:40;96775.61;;;17.60;76.90
34205;BME280;20471;49.680;20.074;2022-08-19T04:49:07;96776.45;;;17.63;76.85
34205;BME280;20471;49.680;20.074;2022-08-19T04:51:35;96777.01;;;17.68;76.81
34205;BME280;20471;49.680;20.074;2022-08-19T04:54:03;96785.48;;;17.72;76.76
34205;BME280;20471;49.680;20.074;2022-08-19T04:56:30;96789.04;;;17.75;76.80
34205;BME280;20471;49.680;20.074;2022-08-19T04:58:57;96793.11;;;17.77;76.79
34205;BME280;20471;49.680;20.074;2022-08-19T05:01:26;96798.31;;;17.81;76.82
34205;BME280;20471;49.680;20.074;2022-08-19T05:04:02;96798.32;;;17.84;76.96
34205;BME280;20471;49.680;20.074;2022-08-19T05:06:31;96796.42;;;17.87;77.00
34205;BME280;20471;49.680;20.074;2022-08-19T05:09:04;96791.21;;;17.90;76.99
34205;BME280;20471;49.680;20.074;2022-08-19T05:11:34;96796.96;;;17.96;77.01
34205;BME280;20471;49.680;20.074;2022-08-19T05:14:06;96799.13;;;18.02;77.06
34205;BME280;20471;49.680;20.074;2022-08-19T05:16:34;96807.34;;;18.07;77.00
34205;BME280;20471;49.680;20.074;2022-08-19T05:19:01;96814.14;;;18.12;77.09
34205;BME280;20471;49.680;20.074;2022-08-19T05:21:46;96807.87;;;18.17;77.12
34205;BME280;20471;49.680;20.074;2022-08-19T05:24:31;96808.70;;;18.22;76.96
34205;BME280;20471;49.680;20.074;2022-08-19T05:26:59;96799.39;;;18.28;77.05
34205;BME280;20471;49.680;20.074;2022-08-19T05:29:29;96807.33;;;18.35;77.17
34205;BME280;20471;49.680;20.074;2022-08-19T05:31:57;96809.48;;;18.41;77.14
34205;BME280;20471;49.680;20.074;2022-08-19T05:34:25;96811.95;;;18.45;77.16
34205;BME280;20471;49.680;20.074;2022-08-19T05:36:54;96807.00;;;18.49;77.19
34205;BME280;20471;49.680;20.074;2022-08-19T05:39:26;96814.94;;;18.56;77.17
34205;BME280;20471;49.680;20.074;2022-08-19T05:41:57;96811.94;;;18.62;77.26
34205;BME280;20471;49.680;20.074;2022-08-19T05:44:28;96818.77;;;18.70;77.44
34205;BME280;20471;49.680;20.074;2022-08-19T05:46:58;96826.94;;;18.78;77.48
34205;BME280;20471;49.680;20.074;2022-08-19T05:49:26;96824.99;;;18.86;77.60
34205;BME280;20471;49.680;20.074;2022-08-19T05:51:53;96816.78;;;18.93;77.54
34205;BME280;20471;49.680;20.074;2022-08-19T05:54:21;96818.94;;;19.01;77.59
34205;BME280;20471;49.680;20.074;2022-08-19T05:56:51;96810.14;;;19.10;77.67
34205;BME280;20471;49.680;20.074;2022-08-19T05:59:19;96803.01;;;19.19;77.78
34205;BME280;20471;49.680;20.074;2022-08-19T06:01:48;96805.69;;;19.29;77.76
34205;BME280;20471;49.680;20.074;2022-08-19T06:04:18;96799.89;;;19.38;77.83
34205;BME280;20471;49.680;20.074;2022-08-19T06:06:47;96800.39;;;19.45;77.81
34205;BME280;20471;49.680;20.074;2022-08-19T06:09:15;96798.75;;;19.54;77.69
34205;BME280;20471;49.680;20.074;2022-08-19T06:11:45;96805.25;;;19.63;77.69
34205;BME280;20471;49.680;20.074;2022-08-19T06:14:18;96801.07;;;19.73;77.70
34205;BME280;20471;49.680;20.074;2022-08-19T06:16:46;96797.42;;;19.86;77.55
34205;BME280;20471;49.680;20.074;2022-08-19T06:19:16;96805.83;;;19.97;77.33
34205;BME280;20471;49.680;20.074;2022-08-19T06:21:46;96805.48;;;20.06;77.13
34205;BME280;20471;49.680;20.074;2022-08-19T06:24:16;96812.77;;;20.18;76.95
34205;BME280;20471;49.680;20.074;2022-08-19T06:26:46;96808.84;;;20.29;76.87
34205;BME280;20471;49.680;20.074;2022-08-19T06:29:16;96810.17;;;20.39;76.65
34205;BME280;20471;49.680;20.074;2022-08-19T06:31:47;96813.08;;;20.51;76.49
34205;BME280;20471;49.680;20.074;2022-08-19T06:34:16;96815.43;;;20.62;76.34
34205;BME280;20471;49.680;20.074;2022-08-19T06:36:46;96805.45;;;20.71;76.00
34205;BME280;20471;49.680;20.074;2022-08-19T06:39:18;96802.59;;;20.81;75.76
34205;BME280;20471;49.680;20.074;2022-08-19T06:41:48;96805.78;;;20.91;75.55
34205;BME280;20471;49.680;20.074;2022-08-19T06:44:18;96805.09;;;21.02;75.25
34205;BME280;20471;49.680;20.074;2022-08-19T06:46:46;96808.86;;;21.11;75.03
34205;BME280;20471;49.680;20.074;2022-08-19T06:49:13;96805.45;;;21.22;74.87
34205;BME280;20471;49.680;20.074;2022-08-19T06:51:41;96793.77;;;21.35;74.83
34205;BME280;20471;49.680;20.074;2022-08-19T06:54:10;96796.62;;;21.46;74.90
34205;BME280;20471;49.680;20.074;2022-08-19T06:56:37;96817.19;;;21.67;74.85
34205;BME280;20471;49.680;20.074;2022-08-19T07:01:42;96822.80;;;21.78;74.42
34205;BME280;20471;49.680;20.074;2022-08-19T07:04:11;96830.03;;;21.90;74.40
34205;BME280;20471;49.680;20.074;2022-08-19T07:06:39;96827.69;;;22.03;74.14
34205;BME280;20471;49.680;20.074;2022-08-19T07:09:07;96809.82;;;22.03;73.82
34205;BME280;20471;49.680;20.074;2022-08-19T07:11:34;96837.25;;;22.40;72.87
34205;BME280;20471;49.680;20.074;2022-08-19T07:14:03;96839.23;;;22.53;73.12
34205;BME280;20471;49.680;20.074;2022-08-19T07:16:31;96839.23;;;22.53;73.12
34205;BME280;20471;49.680;20.074;2022-08-19T07:18:58;96834.62;;;22.65;72.83
34205;BME280;20471;49.680;20.074;2022-08-19T07:21:27;96837.17;;;22.78;72.63
34205;BME280;20471;49.680;20.074;2022-08-19T07:23:56;96839.69;;;22.90;72.57
34205;BME280;20471;49.680;20.074;2022-08-19T07:26:30;96834.50;;;23.03;72.34
34205;BME280;20471;49.680;20.074;2022-08-19T07:28:58;96822.69;;;23.16;72.43
34205;BME280;20471;49.680;20.074;2022-08-19T07:31:27;96827.07;;;23.30;72.75
34205;BME280;20471;49.680;20.074;2022-08-19T07:33:55;96832.80;;;23.45;72.80
34205;BME280;20471;49.680;20.074;2022-08-19T07:36:26;96824.30;;;23.58;72.73
34205;BME280;20471;49.680;20.074;2022-08-19T07:38:59;96832.23;;;23.73;72.37
34205;BME280;20471;49.680;20.074;2022-08-19T07:41:29;96831.25;;;23.91;72.44
34205;BME280;20471;49.680;20.074;2022-08-19T07:46:28;96827.81;;;24.44;72.06
34205;BME280;20471;49.680;20.074;2022-08-19T07:48:56;96831.41;;;24.75;71.30
34205;BME280;20471;49.680;20.074;2022-08-19T07:51:24;96826.99;;;25.08;70.76
34205;BME280;20471;49.680;20.074;2022-08-19T07:53:50;96821.27;;;25.44;70.09
34205;BME280;20471;49.680;20.074;2022-08-19T07:56:18;96821.05;;;25.71;69.20
34205;BME280;20471;49.680;20.074;2022-08-19T07:58:48;96824.41;;;26.05;68.91
34205;BME280;20471;49.680;20.074;2022-08-19T08:01:19;96828.17;;;26.44;68.53
34205;BME280;20471;49.680;20.074;2022-08-19T08:03:49;96825.81;;;26.72;67.60
34205;BME280;20471;49.680;20.074;2022-08-19T08:06:35;96827.17;;;26.89;66.96
34205;BME280;20471;49.680;20.074;2022-08-19T08:09:26;96828.98;;;27.17;66.55
34205;BME280;20471;49.680;20.074;2022-08-19T08:12:00;96826.22;;;27.46;66.20
34205;BME280;20471;49.680;20.074;2022-08-19T08:17:10;96839.92;;;28.02;65.10
34205;BME280;20471;49.680;20.074;2022-08-19T08:19:37;96834.20;;;28.27;64.39
34205;BME280;20471;49.680;20.074;2022-08-19T08:22:06;96838.47;;;28.52;63.30
34205;BME280;20471;49.680;20.074;2022-08-19T08:24:33;96846.66;;;28.69;62.89
34205;BME280;20471;49.680;20.074;2022-08-19T08:27:01;96842.12;;;28.91;62.52
34205;BME280;20471;49.680;20.074;2022-08-19T08:29:30;96850.14;;;29.11;62.05
34205;BME280;20471;49.680;20.074;2022-08-19T08:31:57;96852.30;;;29.38;61.33
34205;BME280;20471;49.680;20.074;2022-08-19T08:34:24;96846.63;;;29.65;60.75
34205;BME280;20471;49.680;20.074;2022-08-19T08:36:51;96847.08;;;29.98;60.50
34205;BME280;20471;49.680;20.074;2022-08-19T08:39:20;96844.83;;;30.22;59.46
34205;BME280;20471;49.680;20.074;2022-08-19T08:42:09;96837.91;;;30.50;58.85
34205;BME280;20471;49.680;20.074;2022-08-19T08:47:31;96829.52;;;31.11;57.43
34205;BME280;20471;49.680;20.074;2022-08-19T08:50:06;96826.55;;;31.20;56.57
34205;BME280;20471;49.680;20.074;2022-08-19T08:52:45;96828.13;;;31.43;56.18
34205;BME280;20471;49.680;20.074;2022-08-19T08:55:18;96826.78;;;31.68;56.05
34205;BME280;20471;49.680;20.074;2022-08-19T08:57:52;96825.70;;;31.98;55.25
34205;BME280;20471;49.680;20.074;2022-08-19T09:03:03;96827.02;;;32.39;53.27
34205;BME280;20471;49.680;20.074;2022-08-19T09:08:36;96820.17;;;32.85;52.24
34205;BME280;20471;49.680;20.074;2022-08-19T09:11:14;96821.69;;;33.02;51.64
34205;BME280;20471;49.680;20.074;2022-08-19T09:16:30;96817.17;;;33.16;50.73
34205;BME280;20471;49.680;20.074;2022-08-19T09:19:01;96822.46;;;33.31;50.13
34205;BME280;20471;49.680;20.074;2022-08-19T09:21:28;96820.28;;;33.44;49.79
34205;BME280;20471;49.680;20.074;2022-08-19T09:23:55;96817.48;;;33.44;49.82
34205;BME280;20471;49.680;20.074;2022-08-19T09:26:24;96813.91;;;33.47;49.57
34205;BME280;20471;49.680;20.074;2022-08-19T09:28:52;96808.76;;;33.49;49.50
34205;BME280;20471;49.680;20.074;2022-08-19T09:31:23;96812.09;;;33.58;49.05
34205;BME280;20471;49.680;20.074;2022-08-19T09:33:51;96796.31;;;33.69;48.60
34205;BME280;20471;49.680;20.074;2022-08-19T09:36:20;96803.72;;;33.81;48.44
34205;BME280;20471;49.680;20.074;2022-08-19T09:38:49;96800.42;;;33.88;48.19
34205;BME280;20471;49.680;20.074;2022-08-19T09:41:18;96800.11;;;33.80;48.06
34205;BME280;20471;49.680;20.074;2022-08-19T09:43:48;96797.90;;;33.80;48.25
34205;BME280;20471;49.680;20.074;2022-08-19T09:46:19;96799.77;;;33.85;48.10
34205;BME280;20471;49.680;20.074;2022-08-19T09:48:50;96796.50;;;33.93;47.73
34205;BME280;20471;49.680;20.074;2022-08-19T09:51:24;96800.07;;;33.93;47.19
34205;BME280;20471;49.680;20.074;2022-08-19T09:53:52;96795.47;;;33.91;46.80
34205;BME280;20471;49.680;20.074;2022-08-19T09:56:22;96789.30;;;33.95;46.63
34205;BME280;20471;49.680;20.074;2022-08-19T09:58:49;96788.24;;;34.04;46.77
34205;BME280;20471;49.680;20.074;2022-08-19T10:01:18;96782.86;;;34.05;46.43
34205;BME280;20471;49.680;20.074;2022-08-19T10:03:53;96781.00;;;34.16;46.63
34205;BME280;20471;49.680;20.074;2022-08-19T10:06:24;96778.61;;;34.31;46.72
34205;BME280;20471;49.680;20.074;2022-08-19T10:08:54;96777.61;;;34.46;46.73
34205;BME280;20471;49.680;20.074;2022-08-19T10:11:20;96773.79;;;34.61;46.08
34205;BME280;20471;49.680;20.074;2022-08-19T10:13:47;96771.73;;;34.75;45.68
34205;BME280;20471;49.680;20.074;2022-08-19T10:16:17;96773.33;;;34.89;45.10
34205;BME280;20471;49.680;20.074;2022-08-19T10:18:46;96770.42;;;35.02;44.70
34205;BME280;20471;49.680;20.074;2022-08-19T10:21:18;96757.94;;;35.17;44.30
34205;BME280;20471;49.680;20.074;2022-08-19T10:23:51;96758.06;;;35.27;43.87
34205;BME280;20471;49.680;20.074;2022-08-19T10:26:23;96752.73;;;35.35;43.49
34205;BME280;20471;49.680;20.074;2022-08-19T10:28:55;96756.31;;;35.32;43.93
34205;BME280;20471;49.680;20.074;2022-08-19T10:31:26;96750.36;;;35.41;43.84
34205;BME280;20471;49.680;20.074;2022-08-19T10:33:55;96750.74;;;35.39;43.09
34205;BME280;20471;49.680;20.074;2022-08-19T10:36:31;96753.72;;;35.33;42.68
34205;BME280;20471;49.680;20.074;2022-08-19T10:39:04;96748.39;;;35.45;43.04
34205;BME280;20471;49.680;20.074;2022-08-19T10:41:35;96749.91;;;35.59;43.29
34205;BME280;20471;49.680;20.074;2022-08-19T10:44:08;96748.22;;;35.75;43.11
34205;BME280;20471;49.680;20.074;2022-08-19T10:49:10;96752.31;;;35.88;42.23
34205;BME280;20471;49.680;20.074;2022-08-19T10:51:39;96748.81;;;36.05;42.32
34205;BME280;20471;49.680;20.074;2022-08-19T10:54:25;96752.14;;;36.22;41.89
34205;BME280;20471;49.680;20.074;2022-08-19T10:56:54;96757.61;;;36.35;41.46
34205;BME280;20471;49.680;20.074;2022-08-19T10:59:23;96756.23;;;36.42;40.75
34205;BME280;20471;49.680;20.074;2022-08-19T11:01:58;96752.23;;;36.50;40.40
34205;BME280;20471;49.680;20.074;2022-08-19T11:04:26;96742.22;;;36.56;39.53
34205;BME280;20471;49.680;20.074;2022-08-19T11:06:52;96739.41;;;36.56;39.94
34205;BME280;20471;49.680;20.074;2022-08-19T11:09:21;96741.82;;;36.61;40.07
34205;BME280;20471;49.680;20.074;2022-08-19T11:11:53;96737.97;;;36.49;40.35
34205;BME280;20471;49.680;20.074;2022-08-19T11:14:20;96734.77;;;36.51;40.42
34205;BME280;20471;49.680;20.074;2022-08-19T11:16:49;96735.78;;;36.52;39.64
34205;BME280;20471;49.680;20.074;2022-08-19T11:19:17;96727.91;;;36.34;38.94
34205;BME280;20471;49.680;20.074;2022-08-19T11:21:47;96724.09;;;36.39;39.16
34205;BME280;20471;49.680;20.074;2022-08-19T11:26:48;96712.85;;;36.39;38.81
34205;BME280;20471;49.680;20.074;2022-08-19T11:29:18;96715.27;;;36.41;38.73
34205;BME280;20471;49.680;20.074;2022-08-19T11:31:48;96715.50;;;36.46;38.84
34205;BME280;20471;49.680;20.074;2022-08-19T11:34:20;96709.86;;;36.49;39.55
34205;BME280;20471;49.680;20.074;2022-08-19T11:36:47;96706.47;;;36.46;39.44
34205;BME280;20471;49.680;20.074;2022-08-19T11:39:18;96711.48;;;36.47;39.69
34205;BME280;20471;49.680;20.074;2022-08-19T11:41:46;96712.27;;;36.47;39.25
34205;BME280;20471;49.680;20.074;2022-08-19T11:44:12;96700.03;;;36.46;39.41
34205;BME280;20471;49.680;20.074;2022-08-19T11:46:41;96701.80;;;36.37;39.01
34205;BME280;20471;49.680;20.074;2022-08-19T11:49:10;96707.38;;;36.26;38.89
34205;BME280;20471;49.680;20.074;2022-08-19T11:51:37;96702.52;;;36.20;39.18
34205;BME280;20471;49.680;20.074;2022-08-19T11:54:05;96705.36;;;36.23;39.31
34205;BME280;20471;49.680;20.074;2022-08-19T11:56:32;96700.36;;;36.26;39.50
34205;BME280;20471;49.680;20.074;2022-08-19T11:59:00;96708.35;;;36.21;39.24
34205;BME280;20471;49.680;20.074;2022-08-19T12:01:27;96707.87;;;36.04;39.11
34205;BME280;20471;49.680;20.074;2022-08-19T12:03:56;96714.45;;;35.99;39.41
34205;BME280;20471;49.680;20.074;2022-08-19T12:06:29;96707.38;;;35.88;38.47
34205;BME280;20471;49.680;20.074;2022-08-19T12:09:03;96714.14;;;35.77;38.94
34205;BME280;20471;49.680;20.074;2022-08-19T12:11:32;96705.74;;;35.80;39.16
34205;BME280;20471;49.680;20.074;2022-08-19T12:13:58;96705.36;;;35.82;38.98
34205;BME280;20471;49.680;20.074;2022-08-19T12:16:27;96708.49;;;35.73;39.09
34205;BME280;20471;49.680;20.074;2022-08-19T12:18:56;96711.27;;;35.69;39.17
34205;BME280;20471;49.680;20.074;2022-08-19T12:21:26;96703.41;;;35.62;39.07
34205;BME280;20471;49.680;20.074;2022-08-19T12:23:56;96706.55;;;35.53;39.09
34205;BME280;20471;49.680;20.074;2022-08-19T12:26:26;96699.95;;;35.55;39.16
34205;BME280;20471;49.680;20.074;2022-08-19T12:28:54;96703.80;;;35.60;39.10
34205;BME280;20471;49.680;20.074;2022-08-19T12:31:21;96692.58;;;35.64;39.46
34205;BME280;20471;49.680;20.074;2022-08-19T12:33:47;96694.63;;;35.70;39.59
34205;BME280;20471;49.680;20.074;2022-08-19T12:36:16;96688.48;;;35.78;39.34
34205;BME280;20471;49.680;20.074;2022-08-19T12:38:43;96682.45;;;35.76;39.00
34205;BME280;20471;49.680;20.074;2022-08-19T12:41:12;96685.88;;;35.79;38.82
34205;BME280;20471;49.680;20.074;2022-08-19T12:43:41;96678.09;;;35.82;38.97
34205;BME280;20471;49.680;20.074;2022-08-19T12:46:08;96675.66;;;35.81;38.78
34205;BME280;20471;49.680;20.074;2022-08-19T12:48:36;96672.88;;;35.84;38.74
34205;BME280;20471;49.680;20.074;2022-08-19T12:51:07;96678.91;;;35.86;38.86
34205;BME280;20471;49.680;20.074;2022-08-19T12:53:36;96685.73;;;35.89;38.85
34205;BME280;20471;49.680;20.074;2022-08-19T12:56:03;96687.31;;;35.83;38.64
34205;BME280;20471;49.680;20.074;2022-08-19T12:58:31;96684.66;;;35.77;38.16
34205;BME280;20471;49.680;20.074;2022-08-19T13:00:58;96687.02;;;35.71;38.56
34205;BME280;20471;49.680;20.074;2022-08-19T13:03:24;96684.42;;;35.72;38.86
34205;BME280;20471;49.680;20.074;2022-08-19T13:05:53;96682.39;;;35.69;38.95
34205;BME280;20471;49.680;20.074;2022-08-19T13:08:19;96680.21;;;35.72;39.03
34205;BME280;20471;49.680;20.074;2022-08-19T13:10:46;96670.38;;;35.72;39.06
34205;BME280;20471;49.680;20.074;2022-08-19T13:13:13;96673.58;;;35.70;39.15
34205;BME280;20471;49.680;20.074;2022-08-19T13:15:41;96678.03;;;35.75;38.86
34205;BME280;20471;49.680;20.074;2022-08-19T13:18:11;96680.45;;;35.77;38.86
34205;BME280;20471;49.680;20.074;2022-08-19T13:20:39;96681.05;;;35.76;38.84
34205;BME280;20471;49.680;20.074;2022-08-19T13:23:08;96678.47;;;35.81;38.97
34205;BME280;20471;49.680;20.074;2022-08-19T13:25:35;96672.83;;;35.77;39.00
34205;BME280;20471;49.680;20.074;2022-08-19T13:28:03;96680.06;;;35.78;39.25
34205;BME280;20471;49.680;20.074;2022-08-19T13:30:29;96672.67;;;35.83;38.75
34205;BME280;20471;49.680;20.074;2022-08-19T13:33:16;96673.48;;;35.87;38.57